Time;durP1;ratioP1;P1;durP2;ratioP2;P2;SDS_P1;SDS_P2;PMS_P1;PMS_P2;Temp;Humidity;BMP_temperature;BMP_pressure;BME280_temperature;BME280_humidity;BME280_pressure;Samples;Min_cycle;Max_cycle;Signal;HPM_P1;HPM_P2
2023/08/28 00:01:50;;;;;;;22.00;19.60;;;;;;;24.33;83.07;99625.98;84033;284;137092;-71
2023/08/28 00:03:53;;;;;;;23.00;20.60;;;;;;;24.32;83.35;99627.30;84250;283;25267;-73
2023/08/28 00:05:55;;;;;;;24.70;20.80;;;;;;;24.30;83.50;99630.27;84187;283;136748;-71
2023/08/28 00:07:56;;;;;;;24.70;22.00;;;;;;;24.29;83.34;99633.23;84255;283;24413;-70
2023/08/28 00:09:58;;;;;;;24.30;19.60;;;;;;;24.28;83.57;99634.44;84162;284;136868;-71
2023/08/28 00:12:01;;;;;;;25.50;21.20;;;;;;;24.34;83.43;99639.04;84211;284;21602;-71
2023/08/28 00:14:03;;;;;;;25.00;20.70;;;;;;;24.40;82.92;99641.59;84348;284;22545;-72
2023/08/28 00:16:07;;;;;;;23.90;20.50;;;;;;;24.41;82.97;99645.08;84138;283;137261;-72
2023/08/28 00:18:11;;;;;;;23.80;21.10;;;;;;;24.38;83.18;99650.35;84260;283;24202;-70
2023/08/28 00:20:12;;;;;;;21.80;19.40;;;;;;;24.36;83.38;99648.52;84180;283;137157;-71
2023/08/28 00:22:14;;;;;;;21.80;19.40;;;;;;;24.22;84.27;99650.98;84340;283;22738;-70
2023/08/28 00:24:16;;;;;;;20.90;18.60;;;;;;;24.18;84.53;99649.36;84254;284;137865;-70
2023/08/28 00:26:18;;;;;;;23.10;20.80;;;;;;;24.12;84.86;99644.61;84365;283;26356;-72
2023/08/28 00:28:20;;;;;;;21.90;19.00;;;;;;;24.07;85.05;99644.13;84190;283;137262;-69
2023/08/28 00:30:23;;;;;;;21.20;18.90;;;;;;;24.07;85.10;99637.34;84209;284;24134;-73
2023/08/28 00:32:26;;;;;;;23.10;19.40;;;;;;;24.00;85.44;99631.83;84093;284;136679;-69
2023/08/28 00:34:28;;;;;;;25.30;20.10;;;;;;;23.86;86.18;99630.77;84349;283;24454;-72
2023/08/28 00:36:29;;;;;;;24.80;21.90;;;;;;;23.78;86.90;99630.77;84251;283;138419;-71
2023/08/28 00:38:31;;;;;;;25.80;20.90;;;;;;;23.76;87.57;99631.48;84263;283;24919;-69
2023/08/28 00:40:33;;;;;;;32.50;29.50;;;;;;;23.74;87.68;99628.89;84106;284;137570;-70
2023/08/28 00:42:35;;;;;;;34.20;30.80;;;;;;;23.68;87.98;99623.70;84299;283;22582;-71
2023/08/28 00:44:36;;;;;;;34.80;31.10;;;;;;;23.79;87.93;99632.11;84163;282;136963;-67
2023/08/28 00:46:38;;;;;;;29.20;26.20;;;;;;;23.78;87.83;99632.93;84282;283;22556;-72
2023/08/28 00:48:41;;;;;;;28.70;25.90;;;;;;;23.81;87.81;99630.91;84173;283;137003;-68
2023/08/28 00:50:44;;;;;;;28.60;25.60;;;;;;;23.79;87.82;99634.30;84167;284;26615;-68
2023/08/28 00:52:46;;;;;;;26.60;23.90;;;;;;;23.79;87.94;99637.02;84117;280;137004;-71
2023/08/28 00:54:49;;;;;;;27.00;23.00;;;;;;;23.79;88.03;99635.65;84120;284;22580;-70
2023/08/28 00:56:53;;;;;;;26.20;23.50;;;;;;;23.79;88.01;99633.96;84122;284;137033;-67
2023/08/28 00:58:55;;;;;;;28.90;23.30;;;;;;;23.80;88.03;99637.60;84211;284;25140;-70
2023/08/28 01:00:57;;;;;;;26.40;23.30;;;;;;;23.81;88.20;99635.48;84131;283;137533;-71
2023/08/28 01:03:00;;;;;;;28.50;25.70;;;;;;;23.81;88.42;99629.45;84197;283;22566;-71
2023/08/28 01:05:04;;;;;;;27.90;25.10;;;;;;;23.79;88.47;99631.58;84117;283;137385;-72
2023/08/28 01:07:20;;;;;;;27.90;25.00;;;;;;;23.78;88.56;99626.45;84339;284;22569;-71
2023/08/28 01:09:50;;;;;;;27.40;24.60;;;;;;;23.80;88.67;99626.60;84206;283;138766;-71
2023/08/28 01:12:23;;;;;;;27.00;24.10;;;;;;;23.77;88.81;99631.10;84405;283;24129;-71
2023/08/28 01:14:26;;;;;;;27.50;24.20;;;;;;;23.64;89.53;99631.16;84139;283;26728;-69
2023/08/28 01:16:30;;;;;;;26.90;24.20;;;;;;;23.55;90.03;99629.59;84197;284;139465;-71
2023/08/28 01:18:33;;;;;;;26.70;23.90;;;;;;;23.48;90.42;99629.39;84367;283;25224;-70
2023/08/28 01:20:36;;;;;;;28.30;24.30;;;;;;;23.42;90.88;99629.63;84182;283;137054;-72
2023/08/28 01:22:44;;;;;;;;;;;;;;;23.34;91.71;99632.13;84240;283;23730;-69
2023/08/28 01:24:51;;;;;;;25.40;22.70;;;;;;;23.28;92.46;99632.67;84155;284;123778;-70
2023/08/28 01:26:53;;;;;;;27.20;24.40;;;;;;;23.19;93.04;99637.47;84129;284;22691;-70
2023/08/28 01:28:54;;;;;;;30.40;24.40;;;;;;;23.16;93.50;99638.48;84142;283;137054;-72
2023/08/28 01:30:58;;;;;;;26.60;23.80;;;;;;;23.05;93.79;99624.23;84163;284;24107;-70
2023/08/28 01:33:00;;;;;;;27.80;25.00;;;;;;;23.07;94.36;99636.88;84147;284;137499;-78
2023/08/28 01:35:10;;;;;;;33.30;24.20;;;;;;;23.06;94.92;99639.61;84133;283;23499;-77
2023/08/28 01:37:18;;;;;;;27.20;23.70;;;;;;;23.08;94.81;99645.63;84019;283;137831;-73
2023/08/28 01:39:31;;;;;;;28.10;23.80;;;;;;;23.09;95.15;99642.58;84133;283;22571;-70
2023/08/28 01:41:33;;;;;;;30.70;24.60;;;;;;;23.10;95.07;99646.60;84144;284;137297;-76
2023/08/28 01:43:43;;;;;;;28.40;24.70;;;;;;;23.03;95.45;99641.92;84081;284;22722;-67
2023/08/28 01:45:45;;;;;;;26.00;23.00;;;;;;;23.00;95.71;99646.73;84162;284;138545;-69
2023/08/28 01:47:50;;;;;;;26.40;23.50;;;;;;;23.02;95.57;99646.38;84217;284;22546;-71
2023/08/28 01:49:53;;;;;;;28.20;22.60;;;;;;;23.01;95.68;99639.14;84165;284;137375;-71
2023/08/28 01:51:55;;;;;;;26.60;23.30;;;;;;;22.99;95.85;99642.55;84317;284;22550;-72
2023/08/28 01:53:57;;;;;;;27.60;23.70;;;;;;;22.99;96.01;99638.09;84186;285;136481;-75
2023/08/28 01:56:08;;;;;;;26.90;24.10;;;;;;;22.99;95.97;99635.65;84036;285;22684;-72
2023/08/28 01:58:13;;;;;;;26.90;24.00;;;;;;;22.99;96.19;99631.89;84107;284;22610;-74
2023/08/28 02:00:15;;;;;;;29.70;23.00;;;;;;;23.00;96.15;99628.68;84012;284;137986;-72
2023/08/28 02:02:23;;;;;;;24.00;21.40;;;;;;;23.06;95.89;99639.02;84238;284;22687;-71
2023/08/28 02:04:25;;;;;;;25.00;21.90;;;;;;;23.12;95.69;99643.09;84028;283;137127;-71
2023/08/28 02:06:27;;;;;;;24.10;21.50;;;;;;;23.16;95.45;99641.63;84197;283;22546;-69
2023/08/28 02:08:29;;;;;;;24.10;21.60;;;;;;;23.16;95.40;99640.61;84111;283;136986;-70
2023/08/28 02:10:32;;;;;;;24.70;22.10;;;;;;;23.10;95.43;99636.97;84295;283;22648;-70
2023/08/28 02:12:34;;;;;;;24.70;22.10;;;;;;;23.02;95.75;99635.08;84106;284;137152;-69
2023/08/28 02:14:36;;;;;;;25.40;22.70;;;;;;;23.02;95.90;99631.22;84231;284;22749;-68
2023/08/28 02:16:38;;;;;;;23.80;21.00;;;;;;;23.05;95.60;99628.55;83926;287;137293;-70
2023/08/28 02:18:41;;;;;;;25.10;21.60;;;;;;;23.09;95.48;99627.69;84779;274;23866;-68
2023/08/28 02:20:44;;;;;;;24.00;21.80;;;;;;;23.02;95.50;99614.65;83972;284;138590;-69
2023/08/28 02:22:47;;;;;;;26.50;21.90;;;;;;;23.07;95.87;99624.12;84319;284;22551;-68
2023/08/28 02:24:49;;;;;;;25.90;23.00;;;;;;;23.02;95.99;99621.88;84085;283;138049;-68
2023/08/28 02:26:50;;;;;;;25.30;22.90;;;;;;;22.98;96.50;99627.52;84096;284;24134;-70
2023/08/28 02:28:52;;;;;;;24.10;21.70;;;;;;;22.94;96.75;99627.42;84023;284;137114;-67
2023/08/28 02:30:57;;;;;;;24.60;22.10;;;;;;;22.92;97.05;99624.30;84025;286;22816;-70
2023/08/28 02:32:58;;;;;;;;;;;;;;;22.93;97.14;99625.69;84195;283;137114;-67
2023/08/28 02:35:01;;;;;;;27.90;23.00;;;;;;;22.93;97.16;99624.52;84225;283;24108;-72
2023/08/28 02:37:03;;;;;;;28.30;22.50;;;;;;;22.87;97.46;99622.89;84148;283;136516;-71
2023/08/28 02:39:05;;;;;;;24.70;22.30;;;;;;;22.88;97.53;99621.84;84160;284;23945;-68
2023/08/28 02:41:07;;;;;;;26.80;21.80;;;;;;;22.87;97.40;99625.42;83871;256;136795;-69
2023/08/28 02:43:10;;;;;;;25.80;22.10;;;;;;;22.90;97.09;99621.27;84146;283;22599;-72
2023/08/28 02:45:12;;;;;;;26.70;22.50;;;;;;;22.95;96.67;99617.15;84025;284;137584;-68
2023/08/28 02:47:14;;;;;;;26.60;22.20;;;;;;;23.00;96.30;99619.27;84193;284;22561;-70
2023/08/28 02:49:16;;;;;;;26.60;23.40;;;;;;;23.05;96.05;99618.70;84146;284;141380;-69
2023/08/28 02:51:18;;;;;;;26.70;21.40;;;;;;;23.06;95.83;99621.63;84194;285;25266;-69
2023/08/28 02:53:19;;;;;;;26.10;23.30;;;;;;;23.07;95.85;99620.36;84169;283;137044;-71
2023/08/28 02:55:22;;;;;;;31.80;24.50;;;;;;;23.10;95.31;99616.04;84233;283;22550;-69
2023/08/28 02:57:24;;;;;;;25.30;22.80;;;;;;;23.11;95.17;99615.92;84004;284;138512;-71
2023/08/28 02:59:25;;;;;;;25.90;22.90;;;;;;;23.13;94.89;99613.12;84152;283;25140;-69
2023/08/28 03:01:27;;;;;;;26.20;23.20;;;;;;;23.12;94.84;99612.27;84046;284;137109;-71
2023/08/28 03:03:30;;;;;;;26.40;22.20;;;;;;;23.14;94.94;99606.70;84222;284;25226;-70
2023/08/28 03:05:33;;;;;;;26.20;22.50;;;;;;;23.16;94.84;99611.46;83975;284;137103;-70
2023/08/28 03:07:37;;;;;;;23.60;20.80;;;;;;;23.18;95.15;99616.11;84102;285;22552;-69
2023/08/28 03:09:39;;;;;;;26.20;22.70;;;;;;;23.19;95.48;99617.24;84178;284;137129;-69
2023/08/28 03:11:41;;;;;;;25.60;22.90;;;;;;;23.18;95.46;99615.88;84157;284;24110;-69
2023/08/28 03:13:43;;;;;;;28.20;24.00;;;;;;;23.18;95.61;99609.33;84078;284;137102;-67
2023/08/28 03:15:45;;;;;;;26.60;22.70;;;;;;;23.13;96.15;99604.70;84202;284;22552;-70
2023/08/28 03:17:47;;;;;;;27.70;23.40;;;;;;;23.10;96.76;99600.21;84129;284;137376;-68
2023/08/28 03:19:49;;;;;;;26.80;23.10;;;;;;;23.06;97.40;99598.80;84133;284;24042;-71
2023/08/28 03:21:51;;;;;;;24.60;22.20;;;;;;;22.97;97.51;99586.17;84239;283;137240;-73
2023/08/28 03:23:53;;;;;;;25.30;22.30;;;;;;;23.04;97.53;99599.04;84306;283;25222;-68
2023/08/28 03:25:54;;;;;;;27.30;23.10;;;;;;;23.03;97.70;99594.37;84104;283;136952;-70
2023/08/28 03:27:56;;;;;;;26.90;21.70;;;;;;;23.03;97.82;99595.16;84223;284;22674;-73
2023/08/28 03:29:58;;;;;;;25.50;22.60;;;;;;;23.01;98.12;99595.73;84003;285;137906;-70
2023/08/28 03:32:00;;;;;;;24.10;21.70;;;;;;;23.03;98.24;99594.85;84119;283;22579;-72
2023/08/28 03:34:02;;;;;;;25.80;22.60;;;;;;;23.07;98.80;99595.89;84061;283;136889;-68
2023/08/28 03:36:04;;;;;;;22.40;20.10;;;;;;;23.09;99.96;99597.30;84041;284;137727;-69
2023/08/28 03:38:06;;;;;;;21.50;19.20;;;;;;;23.16;100.00;99596.18;84155;284;22550;-70
2023/08/28 03:40:09;;;;;;;21.40;19.30;;;;;;;23.22;99.99;99591.77;84020;284;137892;-74
2023/08/28 03:42:10;;;;;;;27.20;21.70;;;;;;;23.32;99.94;99584.45;84185;283;22646;-69
2023/08/28 03:44:12;;;;;;;22.50;19.40;;;;;;;23.36;99.45;99574.95;84076;272;137212;-71
2023/08/28 03:46:14;;;;;;;21.70;19.50;;;;;;;23.52;99.07;99583.05;84216;283;22648;-69
2023/08/28 03:48:17;;;;;;;21.30;18.70;;;;;;;23.59;98.63;99577.27;84113;284;137371;-70
2023/08/28 03:50:18;;;;;;;22.20;19.80;;;;;;;23.64;98.25;99578.10;84145;283;23695;-70
2023/08/28 03:52:20;;;;;;;22.80;19.90;;;;;;;23.68;98.09;99578.36;84033;285;137118;-72
2023/08/28 03:54:22;;;;;;;22.10;19.30;;;;;;;23.77;97.66;99573.96;84165;283;22574;-69
2023/08/28 03:56:24;;;;;;;24.20;19.70;;;;;;;23.87;97.28;99575.46;83994;284;137339;-73
2023/08/28 03:58:26;;;;;;;23.20;20.00;;;;;;;23.99;96.74;99574.35;84183;273;24102;-75
2023/08/28 04:00:28;;;;;;;21.40;18.50;;;;;;;24.09;96.27;99572.35;84151;283;137380;-66
2023/08/28 04:02:30;;;;;;;23.30;19.40;;;;;;;24.17;95.76;99576.13;83982;284;26227;-71
2023/08/28 04:04:32;;;;;;;21.10;19.00;;;;;;;24.22;95.97;99577.47;84034;283;137290;-68
2023/08/28 04:06:34;;;;;;;23.10;19.40;;;;;;;24.35;95.47;99570.93;84250;283;25132;-70
2023/08/28 04:08:36;;;;;;;22.00;18.80;;;;;;;24.47;94.75;99562.72;84007;284;136723;-73
2023/08/28 04:10:37;;;;;;;26.90;19.40;;;;;;;24.53;94.32;99557.40;84040;284;22691;-69
2023/08/28 04:12:39;;;;;;;20.20;18.00;;;;;;;24.58;94.15;99559.71;84080;283;138666;-70
2023/08/28 04:14:41;;;;;;;21.10;17.50;;;;;;;24.62;93.84;99558.45;84135;284;25227;-70
2023/08/28 04:16:43;;;;;;;17.30;15.60;;;;;;;24.68;93.65;99557.56;83908;284;139087;-69
2023/08/28 04:18:45;;;;;;;17.70;16.10;;;;;;;24.76;93.26;99561.05;84197;283;22643;-69
2023/08/28 04:20:48;;;;;;;16.90;15.10;;;;;;;24.85;92.67;99566.73;84115;283;137283;-70
2023/08/28 04:22:50;;;;;;;17.70;15.90;;;;;;;24.94;91.79;99564.81;84022;284;22582;-69
2023/08/28 04:24:52;;;;;;;16.30;14.50;;;;;;;25.03;91.31;99563.34;84067;282;137362;-72
2023/08/28 04:26:54;;;;;;;20.90;14.40;;;;;;;25.14;90.66;99563.26;84201;283;25206;-75
2023/08/28 04:28:57;;;;;;;17.40;15.40;;;;;;;25.27;90.11;99564.33;84161;282;138305;-69
2023/08/28 04:30:59;;;;;;;15.50;14.10;;;;;;;25.43;89.32;99563.56;84145;285;23847;-76
2023/08/28 04:33:01;;;;;;;19.30;14.50;;;;;;;25.58;88.56;99565.58;83921;285;137571;-71
2023/08/28 04:35:04;;;;;;;21.20;15.20;;;;;;;25.72;87.31;99571.52;84102;283;24409;-74
2023/08/28 04:37:05;;;;;;;16.40;14.50;;;;;;;25.84;86.55;99572.29;83997;272;137717;-65
2023/08/28 04:39:07;;;;;;;17.00;13.80;;;;;;;25.96;85.98;99571.65;84190;283;25286;-69
2023/08/28 04:41:09;;;;;;;18.60;14.30;;;;;;;26.16;84.77;99570.69;83981;284;137008;-69
2023/08/28 04:43:11;;;;;;;17.70;14.00;;;;;;;26.43;83.47;99569.41;84051;284;26227;-69
2023/08/28 04:45:13;;;;;;;14.40;13.00;;;;;;;26.65;81.28;99570.01;84014;283;137015;-69
2023/08/28 04:47:15;;;;;;;16.40;13.90;;;;;;;26.85;79.98;99564.50;84106;283;22552;-68
2023/08/28 04:49:17;;;;;;;14.20;12.80;;;;;;;26.98;78.76;99564.83;83981;284;136173;-75
2023/08/28 04:51:19;;;;;;;15.60;14.00;;;;;;;27.15;77.75;99566.77;84207;283;22651;-67
2023/08/28 04:53:23;;;;;;;13.80;12.50;;;;;;;27.32;77.15;99563.35;84176;283;136680;-69
2023/08/28 04:55:24;;;;;;;12.90;11.60;;;;;;;27.39;75.34;99568.34;84205;283;24523;-69
2023/08/28 04:57:26;;;;;;;16.80;11.30;;;;;;;27.35;75.50;99570.77;84095;284;136671;-70
2023/08/28 04:59:28;;;;;;;13.60;12.20;;;;;;;27.24;75.64;99563.95;84192;284;22571;-73
2023/08/28 05:01:32;;;;;;;13.10;11.80;;;;;;;27.13;75.82;99566.92;84200;283;136307;-69
2023/08/28 05:03:34;;;;;;;12.70;11.40;;;;;;;27.07;76.11;99564.54;84230;283;22813;-70
2023/08/28 05:05:36;;;;;;;11.70;10.50;;;;;;;27.13;75.48;99564.63;84130;283;136677;-70
2023/08/28 05:07:38;;;;;;;12.90;10.50;;;;;;;27.34;74.53;99566.77;84308;283;22576;-69
2023/08/28 05:09:40;;;;;;;14.60;10.80;;;;;;;27.72;73.21;99567.38;84369;284;137102;-68
2023/08/28 05:11:42;;;;;;;11.80;10.70;;;;;;;28.08;72.30;99562.71;84176;283;22546;-68
2023/08/28 05:13:44;;;;;;;11.50;10.40;;;;;;;28.44;70.33;99558.92;84026;283;136590;-69
2023/08/28 05:15:46;;;;;;;10.40;9.20;;;;;;;28.69;69.37;99558.41;83975;285;23971;-70
2023/08/28 05:17:50;;;;;;;12.90;11.10;;;;;;;28.77;67.32;99562.52;84183;283;137237;-74
2023/08/28 05:19:52;;;;;;;10.80;9.70;;;;;;;28.67;66.36;99562.75;84123;284;22578;-76
2023/08/28 05:21:55;;;;;;;10.50;9.60;;;;;;;28.55;66.72;99558.63;84068;284;137278;-79
2023/08/28 05:23:57;;;;;;;10.80;8.80;;;;;;;28.40;67.13;99557.58;84083;284;22554;-68
2023/08/28 05:25:59;;;;;;;10.40;9.40;;;;;;;28.26;67.76;99555.76;84138;283;136086;-70
2023/08/28 05:28:03;;;;;;;10.10;8.80;;;;;;;28.21;68.28;99561.01;84128;283;137110;-69
2023/08/28 05:30:06;;;;;;;10.20;9.20;;;;;;;28.19;68.65;99558.57;84074;284;22571;-69
2023/08/28 05:32:08;;;;;;;10.10;9.10;;;;;;;28.20;69.05;99560.40;84060;284;136671;-67
2023/08/28 05:34:11;;;;;;;11.10;10.00;;;;;;;28.30;68.34;99564.47;84160;284;22571;-70
2023/08/28 05:36:15;;;;;;;11.00;10.00;;;;;;;28.38;67.95;99568.05;84057;284;136604;-70
2023/08/28 05:38:17;;;;;;;13.00;9.10;;;;;;;28.45;67.97;99569.70;84180;283;23697;-65
2023/08/28 05:40:19;;;;;;;9.60;8.60;;;;;;;28.55;66.36;99567.27;84085;284;138223;-71
2023/08/28 05:42:21;;;;;;;11.10;9.30;;;;;;;28.65;65.05;99570.65;84408;283;23879;-78
2023/08/28 05:44:23;;;;;;;9.20;8.40;;;;;;;28.71;64.34;99575.53;84270;283;136575;-79
2023/08/28 05:46:24;;;;;;;12.50;9.70;;;;;;;28.71;64.02;99576.16;84516;284;22549;-79
2023/08/28 05:48:26;;;;;;;11.00;9.00;;;;;;;28.75;64.51;99578.27;84393;284;136068;-76
2023/08/28 05:50:28;;;;;;;8.30;7.60;;;;;;;28.84;63.96;99579.66;84526;284;22575;-78
2023/08/28 05:52:30;;;;;;;9.60;8.70;;;;;;;28.95;63.78;99580.19;84363;283;138236;-76
2023/08/28 05:54:31;;;;;;;9.00;8.20;;;;;;;29.07;61.99;99582.00;84135;283;22552;-75
2023/08/28 05:56:34;;;;;;;12.90;7.60;;;;;;;29.13;61.51;99575.91;84249;283;136033;-73
2023/08/28 05:58:36;;;;;;;8.80;8.00;;;;;;;29.22;60.97;99570.60;84301;281;22547;-69
2023/08/28 06:00:38;;;;;;;8.10;7.00;;;;;;;29.39;59.85;99569.77;84018;282;135907;-80
2023/08/28 06:02:41;;;;;;;11.00;7.70;;;;;;;29.55;58.97;99564.90;84118;283;24169;-72
2023/08/28 06:04:51;;;;;;;8.30;7.50;;;;;;;29.59;58.22;99568.20;83922;285;135995;-74
2023/08/28 06:06:54;;;;;;;8.30;7.00;;;;;;;29.67;58.70;99567.46;84127;283;24027;-70
2023/08/28 06:08:55;;;;;;;8.50;7.50;;;;;;;29.80;58.30;99563.56;83971;284;136336;-70
2023/08/28 06:10:57;;;;;;;15.00;8.00;;;;;;;29.99;56.99;99562.31;84151;285;24146;-69
2023/08/28 06:12:59;;;;;;;12.30;7.70;;;;;;;30.16;55.92;99560.88;84150;282;137503;-70
2023/08/28 06:15:01;;;;;;;13.40;8.40;;;;;;;30.29;55.57;99562.16;84215;283;22557;-69
2023/08/28 06:17:03;;;;;;;9.10;7.10;;;;;;;30.42;55.53;99563.38;84158;282;136296;-76
2023/08/28 06:19:05;;;;;;;9.80;7.70;;;;;;;30.62;55.35;99563.95;84145;284;22550;-71
2023/08/28 06:21:07;;;;;;;12.00;7.10;;;;;;;30.81;54.34;99566.00;84115;283;137353;-67
2023/08/28 06:23:09;;;;;;;8.20;6.80;;;;;;;30.92;54.52;99563.70;83811;283;661296;-69
2023/08/28 06:25:11;;;;;;;9.20;7.40;;;;;;;31.02;53.49;99565.20;84165;252;137475;-70
2023/08/28 06:27:13;;;;;;;8.50;6.80;;;;;;;31.07;53.49;99566.84;84296;283;22761;-69
2023/08/28 06:29:15;;;;;;;10.80;6.80;;;;;;;31.15;53.42;99571.48;84085;283;137122;-70
2023/08/28 06:31:18;;;;;;;12.80;6.30;;;;;;;31.15;53.79;99561.84;84198;283;24140;-71
2023/08/28 06:33:20;;;;;;;14.90;6.90;;;;;;;31.30;52.53;99569.13;84214;284;136369;-69
2023/08/28 06:35:21;;;;;;;7.20;6.50;;;;;;;31.39;51.77;99564.83;84125;284;22564;-74
2023/08/28 06:37:24;;;;;;;8.70;6.20;;;;;;;31.47;51.44;99565.64;84001;283;136630;-73
2023/08/28 06:39:26;;;;;;;10.40;6.70;;;;;;;31.53;51.61;99566.88;84461;284;25242;-74
2023/08/28 06:41:28;;;;;;;8.20;7.40;;;;;;;31.68;51.01;99564.38;84028;284;136162;-69
2023/08/28 06:43:34;;;;;;;9.20;7.00;;;;;;;31.79;50.15;99564.55;84424;284;24601;-74
2023/08/28 06:45:36;;;;;;;8.40;6.70;;;;;;;31.99;49.54;99564.95;84251;284;135842;-72
2023/08/28 06:47:38;;;;;;;7.50;6.20;;;;;;;32.23;49.17;99562.70;84405;283;22541;-71
2023/08/28 06:49:39;;;;;;;7.10;6.40;;;;;;;32.49;48.69;99566.52;84473;283;135978;-70
2023/08/28 06:51:41;;;;;;;6.40;5.70;;;;;;;32.79;47.83;99563.29;84191;283;22557;-71
2023/08/28 06:53:43;;;;;;;10.00;5.90;;;;;;;33.01;46.71;99568.86;84190;284;135670;-72
2023/08/28 06:55:45;;;;;;;11.00;6.40;;;;;;;33.17;46.76;99565.31;84207;284;22652;-69
2023/08/28 06:57:48;;;;;;;7.10;6.20;;;;;;;33.38;46.35;99567.03;84138;284;137295;-70
2023/08/28 06:59:50;;;;;;;16.20;6.70;;;;;;;33.52;45.86;99565.45;84430;283;24204;-70
2023/08/28 07:01:52;;;;;;;11.40;6.60;;;;;;;33.62;45.51;99561.56;84448;283;137395;-70
2023/08/28 07:03:54;;;;;;;10.90;6.60;;;;;;;33.69;44.74;99561.42;84436;284;22606;-70
2023/08/28 07:05:56;;;;;;;7.70;5.40;;;;;;;33.73;44.31;99561.96;84238;283;135833;-76
2023/08/28 07:07:58;;;;;;;7.00;6.00;;;;;;;33.61;44.49;99557.27;84371;284;22548;-71
2023/08/28 07:10:00;;;;;;;10.40;5.70;;;;;;;33.54;44.26;99560.05;84146;284;136619;-70
2023/08/28 07:12:02;;;;;;;6.60;5.30;;;;;;;33.49;45.11;99564.11;84330;284;22558;-72
2023/08/28 07:14:06;;;;;;;8.70;4.80;;;;;;;33.47;44.63;99561.64;84371;284;22581;-79
2023/08/28 07:16:08;;;;;;;6.60;5.00;;;;;;;33.46;44.22;99561.55;84373;283;137113;-71
2023/08/28 07:18:10;;;;;;;9.90;5.60;;;;;;;33.40;44.03;99561.39;84530;283;24102;-72
2023/08/28 07:20:12;;;;;;;8.40;5.00;;;;;;;33.31;44.09;99559.79;84450;284;138375;-75
2023/08/28 07:22:13;;;;;;;5.40;4.90;;;;;;;33.25;44.12;99558.08;84442;283;24172;-72
2023/08/28 07:24:15;;;;;;;5.30;4.60;;;;;;;33.16;43.98;99558.35;84411;283;135194;-81
2023/08/28 07:26:17;;;;;;;5.00;4.50;;;;;;;33.03;44.28;99558.98;84164;283;22580;-72
2023/08/28 07:28:20;;;;;;;6.90;4.60;;;;;;;32.94;44.21;99557.26;84284;284;136246;-82
2023/08/28 07:30:22;;;;;;;7.40;4.50;;;;;;;32.86;44.02;99557.15;84573;283;23644;-73
2023/08/28 07:32:23;;;;;;;6.50;4.40;;;;;;;32.86;44.23;99554.54;84060;284;136083;-71
2023/08/28 07:34:25;;;;;;;7.80;4.50;;;;;;;32.88;44.16;99555.22;84165;284;22582;-68
2023/08/28 07:36:27;;;;;;;10.20;4.50;;;;;;;32.85;44.06;99553.48;84069;283;136125;-70
2023/08/28 07:38:29;;;;;;;10.50;4.90;;;;;;;32.78;43.88;99552.38;84520;284;22579;-73
2023/08/28 07:40:32;;;;;;;6.20;4.60;;;;;;;32.76;44.42;99547.91;84261;283;138561;-71
2023/08/28 07:42:34;;;;;;;9.00;5.70;;;;;;;32.74;44.53;99551.20;84304;283;22574;-71
2023/08/28 07:44:37;;;;;;;5.10;4.70;;;;;;;32.72;44.16;99546.31;84275;283;137335;-71
2023/08/28 07:46:38;;;;;;;5.30;4.80;;;;;;;32.67;44.73;99540.14;84471;284;24248;-71
2023/08/28 07:48:40;;;;;;;8.10;4.50;;;;;;;32.64;44.25;99535.73;84269;283;136288;-71
2023/08/28 07:50:45;;;;;;;6.30;3.70;;;;;;;32.64;43.60;99528.32;84397;283;25245;-71
2023/08/28 07:52:47;;;;;;;;;;;;;;;32.70;43.39;99528.16;84094;283;136149;-84
2023/08/28 07:54:48;;;;;;;5.40;3.70;;;;;;;32.73;42.93;99528.23;84242;283;22546;-69
2023/08/28 07:56:50;;;;;;;4.80;4.00;;;;;;;32.68;43.03;99525.11;84124;283;136059;-71
2023/08/28 07:58:52;;;;;;;5.30;4.20;;;;;;;32.65;43.47;99513.44;84462;283;24203;-71
2023/08/28 08:00:54;;;;;;;4.30;3.90;;;;;;;32.75;43.30;99520.95;84115;283;137257;-78
2023/08/28 08:02:56;;;;;;;5.50;4.10;;;;;;;32.80;43.30;99522.08;84239;283;22547;-77
2023/08/28 08:04:58;;;;;;;6.10;3.70;;;;;;;32.79;42.90;99525.14;84475;283;136010;-70
2023/08/28 08:07:00;;;;;;;5.70;3.30;;;;;;;32.73;42.67;99523.66;84469;284;22573;-70
2023/08/28 08:09:02;;;;;;;3.90;3.60;;;;;;;32.64;42.62;99526.83;84167;284;136522;-70
2023/08/28 08:11:04;;;;;;;3.70;3.30;;;;;;;32.57;42.97;99525.94;84056;283;22585;-70
2023/08/28 08:13:06;;;;;;;4.70;3.60;;;;;;;32.57;43.03;99521.14;84092;283;136237;-72
2023/08/28 08:15:09;;;;;;;7.30;3.40;;;;;;;32.47;42.71;99507.77;84735;283;24194;-71
2023/08/28 08:17:10;;;;;;;3.90;3.50;;;;;;;32.51;42.72;99520.01;84360;284;135951;-70
2023/08/28 08:19:12;;;;;;;5.60;4.30;;;;;;;32.51;42.79;99520.65;84405;284;22588;-72
2023/08/28 08:21:15;;;;;;;5.10;3.90;;;;;;;32.54;43.14;99523.77;84052;283;136290;-69
2023/08/28 08:23:19;;;;;;;5.80;3.90;;;;;;;32.55;43.77;99527.35;84536;283;24110;-71
2023/08/28 08:25:22;;;;;;;6.10;3.50;;;;;;;32.52;42.88;99532.31;83949;283;136628;-70
2023/08/28 08:27:25;;;;;;;6.40;4.20;;;;;;;32.46;42.60;99530.29;84157;284;24042;-79
2023/08/28 08:29:27;;;;;;;9.40;4.60;;;;;;;32.37;42.59;99531.42;84060;284;136277;-72
2023/08/28 08:31:29;;;;;;;4.00;3.60;;;;;;;32.25;42.88;99529.91;84012;284;25317;-71
2023/08/28 08:33:31;;;;;;;3.50;3.20;;;;;;;32.17;42.93;99531.73;84171;283;135947;-71
2023/08/28 08:35:34;;;;;;;7.50;3.80;;;;;;;32.12;43.50;99535.86;84516;283;22566;-70
2023/08/28 08:37:36;;;;;;;9.00;3.60;;;;;;;32.11;43.38;99529.39;84680;272;136181;-69
2023/08/28 08:39:38;;;;;;;3.90;3.50;;;;;;;32.17;43.44;99528.27;84436;284;25147;-66
2023/08/28 08:41:40;;;;;;;7.80;4.30;;;;;;;32.25;42.75;99521.48;84001;284;137525;-69
2023/08/28 08:43:42;;;;;;;5.40;3.80;;;;;;;32.32;42.69;99522.85;84479;284;22546;-81
2023/08/28 08:45:47;;;;;;;7.10;4.20;;;;;;;32.38;43.01;99519.22;84368;283;137559;-69
2023/08/28 08:47:53;;;;;;;4.60;4.20;;;;;;;32.40;43.37;99514.00;84106;284;24104;-73
2023/08/28 08:50:00;;;;;;;5.70;5.20;;;;;;;32.47;43.51;99513.85;84337;284;136476;-73
2023/08/28 08:52:07;;;;;;;6.30;5.30;;;;;;;32.55;43.60;99510.35;84257;284;136455;-73
2023/08/28 08:54:16;;;;;;;4.80;4.40;;;;;;;32.67;43.62;99509.80;84599;285;25225;-77
2023/08/28 08:56:21;;;;;;;5.70;3.90;;;;;;;32.80;42.66;99512.06;84261;284;136026;-79
2023/08/28 08:58:24;;;;;;;7.50;4.70;;;;;;;32.94;42.21;99512.33;84130;284;24326;-77
2023/08/28 09:00:26;;;;;;;4.30;3.90;;;;;;;33.09;41.64;99518.42;84296;284;136187;-70
2023/08/28 09:02:30;;;;;;;8.10;4.50;;;;;;;33.22;41.31;99518.09;84281;283;25288;-70
2023/08/28 09:04:33;;;;;;;5.50;4.40;;;;;;;33.29;41.45;99518.86;84590;283;136238;-71
2023/08/28 09:06:37;;;;;;;4.90;4.10;;;;;;;33.30;41.08;99519.77;84589;283;22588;-70
2023/08/28 09:08:42;;;;;;;5.80;4.20;;;;;;;33.32;41.38;99514.92;83841;284;136255;-70
2023/08/28 09:10:45;;;;;;;4.60;4.20;;;;;;;33.35;40.63;99515.77;84134;283;22558;-70
2023/08/28 09:12:47;;;;;;;5.70;4.20;;;;;;;33.35;40.85;99517.11;83941;283;136500;-70
2023/08/28 09:14:49;;;;;;;8.30;4.20;;;;;;;33.41;40.96;99517.30;84189;283;25174;-70
2023/08/28 09:16:51;;;;;;;4.40;4.00;;;;;;;33.51;40.46;99521.22;83932;283;137395;-71
2023/08/28 09:18:53;;;;;;;5.70;3.70;;;;;;;33.59;40.28;99519.35;84159;283;25325;-69
2023/08/28 09:21:11;;;;;;;5.50;4.00;;;;;;;33.71;39.93;99515.02;84050;285;135657;-69
2023/08/28 09:23:13;;;;;;;9.60;4.80;;;;;;;33.82;39.92;99509.58;84082;284;24140;-69
2023/08/28 09:25:17;;;;;;;5.20;4.00;;;;;;;33.91;39.50;99511.86;83905;284;137428;-71
2023/08/28 09:27:19;;;;;;;;;;;;;;;33.97;39.57;99504.56;84194;283;25239;-71
2023/08/28 09:29:23;;;;;;;6.40;4.60;;;;;;;34.11;39.56;99510.52;84055;283;123326;-73
2023/08/28 09:31:30;;;;;;;5.60;4.00;;;;;;;34.13;39.03;99511.00;84153;283;22626;-70
2023/08/28 09:33:44;;;;;;;6.90;4.20;;;;;;;34.19;38.92;99509.09;83906;285;136549;-73
2023/08/28 09:36:14;;;;;;;11.00;4.80;;;;;;;34.33;38.90;99517.30;83999;271;136601;-70